Leeds, Illinois
Current Conditions -  °F | °C
As of 10:55 AM on Thursday 30 Oct 2014 (Local Time) from KC75 Reporting Station
Broken Clouds Broken Clouds  
Wind Chill: 42°   Ceiling: 10000
Heat Index: 45°   Visibility: 10mi
Dew Point: 35°   Wind: 6mph
Humidity: 69%   Direction: 220°SW
Pressure: 30.12"   Gusts: NA
Location:  41.0632°N, 89.0208°W
Report Text: KC75 301555Z AUTO 22005KT 10SM BKN100 07/02 A3012 RMK AO2 T00720018
Loading
Personal Weather Stations






























Interactive Weather Map
Tropical Storm Tracking
New forecast layout! Learn more

10-Day Weather Forecast

Advertisements
Track Severe Weather on mobile